Delanson, New York
Current Conditions -  °F | °C
As of 5:50 PM on Wednesday 22 Oct 2014 (Local Time) from KSCH Reporting Station
Overcast Overcast  
Wind Chill: 52°   Ceiling: 1700
Heat Index: 52°   Visibility: 10mi
Dew Point: 46°   Wind: 10mph
Humidity: 82%   Direction: 20°NNE
Pressure: 30.01"   Gusts: 20mph
Location:  42.75°N, 74.19°W
Report Text: KSCH 222150Z 02009G17KT 10SM OVC017 11/08 A3001
Loading
Personal Weather Stations






























Interactive Weather Map
Tropical Storm Tracking
New forecast layout! Learn more

10-Day Weather Forecast

Advertisements
Track Severe Weather on mobile